createdAt,value
2018-09-06T00:01:00.173Z,20.52
2018-09-06T00:03:28.285Z,20.54
2018-09-06T00:05:56.008Z,20.50
2018-09-06T00:08:24.084Z,20.48
2018-09-06T00:10:51.967Z,20.46
2018-09-06T00:13:19.781Z,20.42
2018-09-06T00:15:47.871Z,20.38
2018-09-06T00:18:15.588Z,20.34
2018-09-06T00:20:43.347Z,20.24
2018-09-06T00:23:11.200Z,20.27
2018-09-06T00:25:42.677Z,20.26
2018-09-06T00:28:10.431Z,20.21
2018-09-06T00:30:38.104Z,20.15
2018-09-06T00:33:05.843Z,20.12
2018-09-06T00:35:34.056Z,20.17
2018-09-06T00:38:01.907Z,20.20
2018-09-06T00:40:29.591Z,20.17
2018-09-06T00:42:57.431Z,20.13
2018-09-06T00:45:25.204Z,20.10
2018-09-06T00:47:52.898Z,20.04
2018-09-06T00:50:21.378Z,19.99
2018-09-06T00:52:50.349Z,19.97
2018-09-06T00:55:18.830Z,19.94
2018-09-06T00:57:46.655Z,19.94
2018-09-06T01:00:14.443Z,19.89
2018-09-06T01:02:42.594Z,19.84
2018-09-06T01:05:10.318Z,19.91
2018-09-06T01:07:38.035Z,19.99
2018-09-06T01:10:06.850Z,19.98
2018-09-06T01:12:34.730Z,19.96
2018-09-06T01:15:02.818Z,19.90
2018-09-06T01:17:30.535Z,19.84
2018-09-06T01:19:58.255Z,19.80
2018-09-06T01:22:26.037Z,19.77
2018-09-06T01:24:54.071Z,19.82
2018-09-06T01:27:21.754Z,19.82
2018-09-06T01:29:49.531Z,19.75
2018-09-06T01:32:20.738Z,19.78
2018-09-06T01:34:48.533Z,19.67
2018-09-06T01:37:17.500Z,19.67
2018-09-06T01:39:45.247Z,19.65
2018-09-06T01:42:13.032Z,19.56
2018-09-06T01:44:40.815Z,19.50
2018-09-06T01:47:08.538Z,19.47
2018-09-06T01:49:36.475Z,19.40
2018-09-06T01:52:04.194Z,19.38
2018-09-06T01:54:31.957Z,19.31
2018-09-06T01:56:59.715Z,19.28
2018-09-06T01:59:32.983Z,19.27
2018-09-06T02:02:00.773Z,19.37
2018-09-06T02:04:28.463Z,19.36
2018-09-06T02:06:56.203Z,19.28
2018-09-06T02:09:23.987Z,19.27
2018-09-06T02:11:51.657Z,19.34
2018-09-06T02:14:19.383Z,19.32
2018-09-06T02:16:47.219Z,19.27
2018-09-06T02:19:14.940Z,19.26
2018-09-06T02:21:42.735Z,19.23
2018-09-06T02:24:10.435Z,19.21
2018-09-06T02:26:38.195Z,19.19
2018-09-06T02:29:05.943Z,19.16
2018-09-06T02:31:33.695Z,19.18
2018-09-06T02:34:01.737Z,19.15
2018-09-06T02:36:29.520Z,19.21
2018-09-06T02:38:57.255Z,19.25
2018-09-06T02:41:25.172Z,19.25
2018-09-06T02:43:52.899Z,19.21
2018-09-06T02:46:20.665Z,19.20
2018-09-06T02:48:48.496Z,19.25
2018-09-06T02:51:17.475Z,19.27
2018-09-06T02:53:45.273Z,19.22
2018-09-06T02:56:13.593Z,19.23
2018-09-06T02:58:41.439Z,19.15
2018-09-06T03:01:09.490Z,19.13
2018-09-06T03:06:38.770Z,19.08
2018-09-06T03:09:07.547Z,19.07
2018-09-06T03:11:41.497Z,19.15
2018-09-06T03:14:09.659Z,19.14
2018-09-06T03:16:37.456Z,19.11
2018-09-06T03:19:05.173Z,19.08
2018-09-06T03:21:32.848Z,19.02
2018-09-06T03:24:01.000Z,18.98
2018-09-06T03:26:28.667Z,19.02
2018-09-06T03:28:56.812Z,18.96
2018-09-06T03:31:24.496Z,18.94
2018-09-06T03:33:52.281Z,18.92
2018-09-06T03:36:19.985Z,18.85
2018-09-06T03:38:47.700Z,18.88
2018-09-06T03:41:15.680Z,18.90
2018-09-06T03:43:43.432Z,18.88
2018-09-06T03:46:11.286Z,18.84
2018-09-06T03:48:39.068Z,18.77
2018-09-06T03:51:06.800Z,18.74
2018-09-06T03:53:34.970Z,18.71
2018-09-06T03:56:02.759Z,18.71
2018-09-06T03:58:30.568Z,18.68
2018-09-06T04:00:58.282Z,18.72
2018-09-06T04:03:26.071Z,18.71
2018-09-06T04:05:53.790Z,18.75
2018-09-06T04:08:21.619Z,18.79
2018-09-06T04:10:49.347Z,18.79
2018-09-06T04:13:17.060Z,18.70
2018-09-06T04:15:44.754Z,18.71
2018-09-06T04:18:12.745Z,18.73
2018-09-06T04:20:40.462Z,18.65
2018-09-06T04:23:08.134Z,18.63
2018-09-06T04:25:36.092Z,18.58
2018-09-06T04:28:03.877Z,18.62
2018-09-06T04:30:31.624Z,18.62
2018-09-06T04:32:59.351Z,18.65
2018-09-06T04:35:27.302Z,18.63
2018-09-06T04:37:55.125Z,18.56
2018-09-06T04:40:22.927Z,18.53
2018-09-06T04:42:54.277Z,18.54
2018-09-06T04:45:21.947Z,18.51
2018-09-06T04:47:49.813Z,18.50
2018-09-06T04:50:17.604Z,18.50
2018-09-06T04:52:45.325Z,18.50
2018-09-06T04:55:13.148Z,18.49
2018-09-06T04:57:40.863Z,18.49
2018-09-06T05:00:08.671Z,18.60
2018-09-06T05:02:36.364Z,18.51
2018-09-06T05:05:04.435Z,18.51
2018-09-06T05:07:32.203Z,18.54
2018-09-06T05:09:59.888Z,18.49
2018-09-06T05:12:28.043Z,18.50
2018-09-06T05:14:55.735Z,18.45
2018-09-06T05:17:23.464Z,18.45
2018-09-06T05:19:51.216Z,18.52
2018-09-06T05:22:19.207Z,18.53
2018-09-06T05:24:46.897Z,18.54
2018-09-06T05:27:14.746Z,18.51
2018-09-06T05:29:42.424Z,18.48
2018-09-06T05:32:10.280Z,18.52
2018-09-06T05:34:38.039Z,18.51
2018-09-06T05:37:05.975Z,18.53
2018-09-06T05:39:34.026Z,18.55
2018-09-06T05:42:08.436Z,18.52
2018-09-06T05:44:36.160Z,18.60
2018-09-06T05:47:03.942Z,18.57
2018-09-06T05:49:31.623Z,18.60
2018-09-06T05:51:59.472Z,18.69
2018-09-06T05:54:27.893Z,18.68
2018-09-06T05:56:55.839Z,18.68
2018-09-06T05:59:26.890Z,18.64
2018-09-06T06:01:54.608Z,18.64
2018-09-06T06:04:22.379Z,18.65
2018-09-06T06:06:50.195Z,18.60
2018-09-06T06:09:18.031Z,18.55
2018-09-06T06:11:45.815Z,18.52
2018-09-06T06:14:13.845Z,18.49
2018-09-06T06:16:41.553Z,18.52
2018-09-06T06:19:09.305Z,18.50
2018-09-06T06:21:37.730Z,18.60
2018-09-06T06:24:05.647Z,18.67
2018-09-06T06:26:33.384Z,18.71
2018-09-06T06:29:01.250Z,18.86
2018-09-06T06:31:29.036Z,18.96
2018-09-06T06:33:56.929Z,19.08
2018-09-06T06:36:24.633Z,19.27
2018-09-06T06:38:52.460Z,19.39
2018-09-06T06:41:20.194Z,19.56
2018-09-06T06:43:48.019Z,19.66
2018-09-06T06:46:15.800Z,19.65
2018-09-06T06:48:43.567Z,19.67
2018-09-06T06:51:11.432Z,19.71
2018-09-06T06:53:39.167Z,19.84
2018-09-06T06:56:06.962Z,19.92
2018-09-06T06:58:34.832Z,19.96
2018-09-06T07:01:02.776Z,20.11
2018-09-06T07:03:30.437Z,20.24
2018-09-06T07:05:58.511Z,20.25
2018-09-06T07:08:26.279Z,20.31
2018-09-06T07:10:53.927Z,20.45
2018-09-06T07:13:21.639Z,20.60
2018-09-06T07:15:49.292Z,20.86
2018-09-06T07:18:17.143Z,21.06
2018-09-06T07:20:44.788Z,21.26
2018-09-06T07:23:12.584Z,21.39
2018-09-06T07:25:40.275Z,21.51
2018-09-06T07:28:08.091Z,21.60
2018-09-06T07:30:35.948Z,21.67
2018-09-06T07:33:03.627Z,21.68
2018-09-06T07:35:31.559Z,21.69
2018-09-06T07:37:59.420Z,21.62
2018-09-06T07:40:27.230Z,21.61
2018-09-06T07:42:55.315Z,21.61
2018-09-06T07:45:23.026Z,21.64
2018-09-06T07:47:50.878Z,21.65
2018-09-06T07:50:18.980Z,21.64
2018-09-06T07:52:46.719Z,21.70
2018-09-06T07:55:14.499Z,21.77
2018-09-06T07:57:42.292Z,21.80
2018-09-06T08:00:10.399Z,21.86
2018-09-06T08:02:38.124Z,21.95
2018-09-06T08:05:05.947Z,21.99
2018-09-06T08:10:01.508Z,22.24
2018-09-06T08:12:29.298Z,22.39
2018-09-06T08:14:57.191Z,22.70
2018-09-06T08:17:24.926Z,22.92
2018-09-06T08:19:52.690Z,23.06
2018-09-06T08:22:20.548Z,23.12
2018-09-06T08:24:48.284Z,23.26
2018-09-06T08:27:16.249Z,23.39
2018-09-06T08:29:44.099Z,23.43
2018-09-06T08:32:12.042Z,23.40
2018-09-06T08:34:39.764Z,23.56
2018-09-06T08:37:07.484Z,23.99
2018-09-06T08:39:35.240Z,24.26
2018-09-06T08:42:03.046Z,24.41
2018-09-06T08:44:30.831Z,24.52
2018-09-06T08:46:58.688Z,25.11
2018-09-06T08:49:26.411Z,25.01
2018-09-06T08:51:54.264Z,25.00
2018-09-06T08:54:21.967Z,24.91
2018-09-06T08:56:49.655Z,25.46
2018-09-06T08:59:17.414Z,25.55
2018-09-06T09:01:45.164Z,25.74
2018-09-06T09:04:12.914Z,25.86
2018-09-06T09:06:40.756Z,26.03
2018-09-06T09:09:15.200Z,26.44
2018-09-06T09:11:42.986Z,26.57
2018-09-06T09:14:10.771Z,26.80
2018-09-06T09:16:38.570Z,27.29
2018-09-06T09:19:06.984Z,27.00
2018-09-06T09:21:34.848Z,26.78
2018-09-06T09:24:03.996Z,26.95
2018-09-06T09:26:32.007Z,27.21
2018-09-06T09:28:59.776Z,27.10
2018-09-06T09:31:27.516Z,27.24
2018-09-06T09:33:55.759Z,27.51
2018-09-06T09:36:23.567Z,27.63
2018-09-06T09:38:51.343Z,27.96
2018-09-06T09:41:19.516Z,28.01
2018-09-06T09:43:47.271Z,28.34
2018-09-06T09:48:42.291Z,28.67
2018-09-06T09:51:10.040Z,28.48
2018-09-06T09:53:38.128Z,28.58
2018-09-06T09:56:05.995Z,28.66
2018-09-06T09:58:33.846Z,28.51
2018-09-06T10:01:01.791Z,29.13
2018-09-06T10:03:35.290Z,29.42
2018-09-06T10:06:08.797Z,29.45
2018-09-06T10:08:42.238Z,29.74
2018-09-06T10:11:10.115Z,29.78
2018-09-06T10:13:37.855Z,29.31
2018-09-06T10:16:05.770Z,29.54
2018-09-06T10:18:33.600Z,29.42
2018-09-06T10:21:01.387Z,29.64
2018-09-06T10:23:29.221Z,29.78
2018-09-06T10:25:57.102Z,30.02
2018-09-06T10:28:24.895Z,29.83
2018-09-06T10:30:52.635Z,29.74
2018-09-06T10:33:20.349Z,29.82
2018-09-06T10:35:48.207Z,30.16
2018-09-06T10:38:16.247Z,30.12
2018-09-06T10:40:44.029Z,29.94
2018-09-06T10:43:11.816Z,30.34
2018-09-06T10:45:39.583Z,30.60
2018-09-06T10:48:07.305Z,30.45
2018-09-06T10:50:35.080Z,30.43
2018-09-06T10:53:02.800Z,30.37
2018-09-06T10:55:30.677Z,30.69
2018-09-06T10:57:58.503Z,31.11
2018-09-06T11:00:27.931Z,31.38
2018-09-06T11:02:56.543Z,31.41
2018-09-06T11:05:24.235Z,31.05
2018-09-06T11:07:52.052Z,31.46
2018-09-06T11:10:20.070Z,31.10
2018-09-06T11:12:47.891Z,31.34
2018-09-06T11:15:15.632Z,30.91
2018-09-06T11:17:44.005Z,30.63
2018-09-06T11:20:11.814Z,31.18
2018-09-06T11:22:39.784Z,31.17
2018-09-06T11:25:08.124Z,31.03
2018-09-06T11:27:39.389Z,30.99
2018-09-06T11:30:07.275Z,31.18
2018-09-06T11:32:34.972Z,31.38
2018-09-06T11:35:02.868Z,31.35
2018-09-06T11:37:30.654Z,31.22
2018-09-06T11:39:58.874Z,31.04
2018-09-06T11:42:26.535Z,30.99
2018-09-06T11:44:54.255Z,30.47
2018-09-06T11:47:22.134Z,30.39
2018-09-06T11:49:49.762Z,30.71
2018-09-06T11:52:17.741Z,31.14
2018-09-06T11:54:45.504Z,31.04
2018-09-06T11:57:13.339Z,31.17
2018-09-06T11:59:41.263Z,30.81
2018-09-06T12:02:09.084Z,30.99
2018-09-06T12:04:37.176Z,31.04
2018-09-06T12:07:05.194Z,31.02
2018-09-06T12:09:32.879Z,31.26
2018-09-06T12:12:00.872Z,31.43
2018-09-06T12:14:28.603Z,31.93
2018-09-06T12:16:56.339Z,31.90
2018-09-06T12:19:24.046Z,31.74
2018-09-06T12:21:51.874Z,31.85
2018-09-06T12:24:19.648Z,31.66
2018-09-06T12:26:47.466Z,31.26
2018-09-06T12:29:15.239Z,31.13
2018-09-06T12:31:43.272Z,30.82
2018-09-06T12:34:11.978Z,30.74
2018-09-06T12:36:42.068Z,31.10
2018-09-06T12:41:49.227Z,30.97
2018-09-06T12:44:20.288Z,30.73
2018-09-06T12:46:48.199Z,30.49
2018-09-06T12:49:15.924Z,30.27
2018-09-06T12:51:49.990Z,30.48
2018-09-06T12:54:18.308Z,30.77
2018-09-06T12:56:46.036Z,30.65
2018-09-06T12:59:13.736Z,30.81
2018-09-06T13:01:41.514Z,31.03
2018-09-06T13:04:09.354Z,30.73
2018-09-06T13:06:37.079Z,30.66
2018-09-06T13:09:05.995Z,30.67
2018-09-06T13:11:34.089Z,30.37
2018-09-06T13:14:01.852Z,30.41
2018-09-06T13:16:29.580Z,30.18
2018-09-06T13:18:57.599Z,30.01
2018-09-06T13:21:25.296Z,29.85
2018-09-06T13:23:52.964Z,29.80
2018-09-06T13:26:20.689Z,29.61
2018-09-06T13:28:48.511Z,29.43
2018-09-06T13:31:16.341Z,29.31
2018-09-06T13:33:44.787Z,29.25
2018-09-06T13:36:12.619Z,29.64
2018-09-06T13:38:40.303Z,29.75
2018-09-06T13:41:08.196Z,29.96
2018-09-06T13:43:35.918Z,30.16
2018-09-06T13:46:03.666Z,30.20
2018-09-06T13:48:31.318Z,29.80
2018-09-06T13:50:59.019Z,29.62
2018-09-06T13:53:26.711Z,29.59
2018-09-06T13:55:54.433Z,29.41
2018-09-06T13:58:22.183Z,28.87
2018-09-06T14:00:50.243Z,28.81
2018-09-06T14:03:18.119Z,28.83
2018-09-06T14:05:46.601Z,28.53
2018-09-06T14:08:14.363Z,28.37
2018-09-06T14:10:42.079Z,28.31
2018-09-06T14:13:10.013Z,28.28
2018-09-06T14:15:37.691Z,28.17
2018-09-06T14:18:05.675Z,27.99
2018-09-06T14:20:33.423Z,27.27
2018-09-06T14:23:01.235Z,26.49
2018-09-06T14:25:32.952Z,25.87
2018-09-06T14:28:01.767Z,25.51
2018-09-06T14:30:29.495Z,25.32
2018-09-06T14:32:57.212Z,24.85
2018-09-06T14:35:24.931Z,24.34
2018-09-06T14:37:52.714Z,24.08
2018-09-06T14:40:20.442Z,23.75
2018-09-06T14:42:49.272Z,23.75
2018-09-06T14:45:17.005Z,23.87
2018-09-06T14:47:45.023Z,23.21
2018-09-06T14:50:12.779Z,22.95
2018-09-06T14:52:40.452Z,22.97
2018-09-06T14:55:08.174Z,22.41
2018-09-06T14:57:36.415Z,22.53
2018-09-06T15:00:04.337Z,22.12
2018-09-06T15:02:32.019Z,22.00
2018-09-06T15:04:59.743Z,22.27
2018-09-06T15:07:27.523Z,22.31
2018-09-06T15:09:55.202Z,22.30
2018-09-06T15:12:22.951Z,22.29
2018-09-06T15:14:50.711Z,22.64
2018-09-06T15:17:18.466Z,22.14
2018-09-06T15:19:46.168Z,22.32
2018-09-06T15:22:13.960Z,22.36
2018-09-06T15:24:41.952Z,22.47
2018-09-06T15:27:09.677Z,22.59
2018-09-06T15:29:37.396Z,22.74
2018-09-06T15:32:10.864Z,22.90
2018-09-06T15:34:38.697Z,22.98
2018-09-06T15:37:06.423Z,22.85
2018-09-06T15:39:34.417Z,22.83
2018-09-06T15:42:02.227Z,22.78
2018-09-06T15:44:30.096Z,22.82
2018-09-06T15:46:57.773Z,22.87
2018-09-06T15:49:25.515Z,22.94
2018-09-06T15:51:53.360Z,22.90
2018-09-06T15:54:21.076Z,22.91
2018-09-06T15:56:48.917Z,22.90
2018-09-06T15:59:16.823Z,22.94
2018-09-06T16:01:44.850Z,22.94
2018-09-06T16:04:12.597Z,22.92
2018-09-06T16:06:40.359Z,22.87
2018-09-06T16:09:08.048Z,22.87
2018-09-06T16:11:35.801Z,22.78
2018-09-06T16:14:03.586Z,22.71
2018-09-06T16:16:31.367Z,22.65
2018-09-06T16:18:59.051Z,22.59
2018-09-06T16:21:26.703Z,22.45
2018-09-06T16:23:54.367Z,22.41
2018-09-06T16:26:22.065Z,22.31
2018-09-06T16:28:49.745Z,22.25
2018-09-06T16:31:17.479Z,22.25
2018-09-06T16:33:45.307Z,22.15
2018-09-06T16:36:13.191Z,22.14
2018-09-06T16:38:40.992Z,22.11
2018-09-06T16:41:08.691Z,22.16
2018-09-06T16:43:36.604Z,22.18
2018-09-06T16:46:04.263Z,21.85
2018-09-06T16:48:32.125Z,21.89
2018-09-06T16:50:59.899Z,21.68
2018-09-06T16:53:27.616Z,21.72
2018-09-06T16:55:55.827Z,21.83
2018-09-06T16:58:23.631Z,21.64
2018-09-06T17:00:51.528Z,21.62
2018-09-06T17:03:19.265Z,21.57
2018-09-06T17:05:47.012Z,21.48
2018-09-06T17:08:14.783Z,21.37
2018-09-06T17:10:42.464Z,21.36
2018-09-06T17:13:13.792Z,21.36
2018-09-06T17:15:41.509Z,21.40
2018-09-06T17:18:09.267Z,21.32
2018-09-06T17:20:36.991Z,21.30
2018-09-06T17:23:04.752Z,21.38
2018-09-06T17:28:07.232Z,21.23
2018-09-06T17:30:35.774Z,21.16
2018-09-06T17:33:03.543Z,21.07
2018-09-06T17:35:31.170Z,20.90
2018-09-06T17:37:58.838Z,20.59
2018-09-06T17:40:26.711Z,20.40
2018-09-06T17:42:54.568Z,20.22
2018-09-06T17:45:22.232Z,20.11
2018-09-06T17:47:50.167Z,19.96
2018-09-06T17:50:17.893Z,19.98
2018-09-06T17:52:45.664Z,19.96
2018-09-06T17:55:13.463Z,19.96
2018-09-06T17:57:41.169Z,20.01
2018-09-06T18:00:09.021Z,20.04
2018-09-06T18:02:36.748Z,20.02
2018-09-06T18:05:04.739Z,19.99
2018-09-06T18:07:32.439Z,19.96
2018-09-06T18:10:00.282Z,19.94
2018-09-06T18:12:28.100Z,20.00
2018-09-06T18:14:56.077Z,19.83
2018-09-06T18:17:24.547Z,19.76
2018-09-06T18:19:52.448Z,19.72
2018-09-06T18:22:20.297Z,19.61
2018-09-06T18:24:51.620Z,19.59
2018-09-06T18:27:19.356Z,19.59
2018-09-06T18:29:47.378Z,19.51
2018-09-06T18:32:15.100Z,19.49
2018-09-06T18:34:42.880Z,19.44
2018-09-06T18:37:10.782Z,19.40
2018-09-06T18:39:38.651Z,19.34
2018-09-06T18:42:06.377Z,19.31
2018-09-06T18:44:34.172Z,19.33
2018-09-06T18:47:02.339Z,19.31
2018-09-06T18:49:30.131Z,19.28
2018-09-06T18:51:57.945Z,19.24
2018-09-06T18:54:32.865Z,19.28
2018-09-06T18:57:00.843Z,19.28
2018-09-06T18:59:28.623Z,19.25
2018-09-06T19:01:56.386Z,19.27
2018-09-06T19:04:24.050Z,19.24
2018-09-06T19:06:52.012Z,19.20
2018-09-06T19:09:19.880Z,19.16
2018-09-06T19:11:47.811Z,19.11
2018-09-06T19:14:16.117Z,19.19
2018-09-06T19:16:43.984Z,19.15
2018-09-06T19:19:11.819Z,19.09
2018-09-06T19:21:39.647Z,19.13
2018-09-06T19:24:07.438Z,19.17
2018-09-06T19:26:35.240Z,19.18
2018-09-06T19:29:03.116Z,19.16
2018-09-06T19:31:30.901Z,19.15
2018-09-06T19:33:59.108Z,19.13
2018-09-06T19:36:26.919Z,19.18
2018-09-06T19:38:55.033Z,19.18
2018-09-06T19:41:22.751Z,19.17
2018-09-06T19:43:50.412Z,19.17
2018-09-06T19:46:18.164Z,19.21
2018-09-06T19:48:45.923Z,19.23
2018-09-06T19:51:13.588Z,19.23
2018-09-06T19:53:44.825Z,19.22
2018-09-06T19:56:12.587Z,19.20
2018-09-06T19:58:40.472Z,19.22
2018-09-06T20:01:08.234Z,19.20
2018-09-06T20:03:36.005Z,19.20
2018-09-06T20:06:03.901Z,19.19
2018-09-06T20:08:31.607Z,19.17
2018-09-06T20:10:59.351Z,19.16
2018-09-06T20:13:27.005Z,19.17
2018-09-06T20:15:55.062Z,19.15
2018-09-06T20:18:22.843Z,19.15
2018-09-06T20:20:50.710Z,19.17
2018-09-06T20:23:18.403Z,19.13
2018-09-06T20:25:47.179Z,19.16
2018-09-06T20:28:16.294Z,19.15
2018-09-06T20:30:43.893Z,19.14
2018-09-06T20:33:12.313Z,19.09
2018-09-06T20:35:40.264Z,19.09
2018-09-06T20:38:07.994Z,19.07
2018-09-06T20:40:36.769Z,19.06
2018-09-06T20:43:04.815Z,19.07
2018-09-06T20:45:32.543Z,19.07
2018-09-06T20:48:00.279Z,18.99
2018-09-06T20:50:28.643Z,18.96
2018-09-06T20:52:57.052Z,18.95
2018-09-06T20:55:24.855Z,18.95
2018-09-06T20:57:52.589Z,19.00
2018-09-06T21:00:20.322Z,19.01
2018-09-06T21:02:48.041Z,19.02
2018-09-06T21:05:16.040Z,19.03
2018-09-06T21:07:43.783Z,19.06
2018-09-06T21:10:11.484Z,19.05
2018-09-06T21:12:39.211Z,19.08
2018-09-06T21:15:06.963Z,19.08
2018-09-06T21:17:34.672Z,19.10
2018-09-06T21:20:02.925Z,19.11
2018-09-06T21:22:30.691Z,19.08
2018-09-06T21:24:58.540Z,19.03
2018-09-06T21:27:26.202Z,19.08
2018-09-06T21:29:53.955Z,19.08
2018-09-06T21:32:21.589Z,19.07
2018-09-06T21:34:49.299Z,19.06
2018-09-06T21:37:17.071Z,19.02
2018-09-06T21:39:44.783Z,19.02
2018-09-06T21:42:12.511Z,19.01
2018-09-06T21:44:40.187Z,18.98
2018-09-06T21:47:07.896Z,18.96
2018-09-06T21:49:36.483Z,18.95
2018-09-06T21:52:04.424Z,18.92
2018-09-06T21:54:32.144Z,18.91
2018-09-06T21:56:59.847Z,18.96
2018-09-06T21:59:27.647Z,18.90
2018-09-06T22:01:55.327Z,18.91
2018-09-06T22:04:23.006Z,18.93
2018-09-06T22:06:50.707Z,18.96
2018-09-06T22:09:18.390Z,18.93
2018-09-06T22:11:46.159Z,18.90
2018-09-06T22:14:13.878Z,18.91
2018-09-06T22:16:41.650Z,18.88
2018-09-06T22:19:09.373Z,18.86
2018-09-06T22:21:37.298Z,18.86
2018-09-06T22:24:05.063Z,18.85
2018-09-06T22:26:32.750Z,18.83
2018-09-06T22:29:00.427Z,18.82
2018-09-06T22:31:28.131Z,18.80
2018-09-06T22:33:55.824Z,18.75
2018-09-06T22:36:23.524Z,18.73
2018-09-06T22:38:51.219Z,18.72
2018-09-06T22:41:19.023Z,18.71
2018-09-06T22:43:46.906Z,18.69
2018-09-06T22:46:15.597Z,18.67
2018-09-06T22:48:43.414Z,18.68
2018-09-06T22:51:11.040Z,18.68
2018-09-06T22:53:38.763Z,18.66
2018-09-06T22:56:06.463Z,18.67
2018-09-06T22:58:34.238Z,18.64
2018-09-06T23:01:01.925Z,18.62
2018-09-06T23:03:35.351Z,18.61
2018-09-06T23:06:03.048Z,18.60
2018-09-06T23:08:30.800Z,18.61
2018-09-06T23:10:58.499Z,18.61
2018-09-06T23:13:26.211Z,18.62
2018-09-06T23:15:53.900Z,18.62
2018-09-06T23:18:21.621Z,18.63
2018-09-06T23:20:49.497Z,18.65
2018-09-06T23:23:17.697Z,18.64
2018-09-06T23:25:45.432Z,18.64
2018-09-06T23:28:13.155Z,18.63
2018-09-06T23:30:41.409Z,18.65
2018-09-06T23:33:09.171Z,18.67
2018-09-06T23:35:36.879Z,18.67
2018-09-06T23:38:04.667Z,18.72
2018-09-06T23:40:36.938Z,18.74
2018-09-06T23:43:04.639Z,18.72
2018-09-06T23:45:32.347Z,18.70
2018-09-06T23:48:00.059Z,18.69
2018-09-06T23:50:27.815Z,18.68
2018-09-06T23:52:55.592Z,18.69
2018-09-06T23:55:23.263Z,18.68
2018-09-06T23:57:51.187Z,18.67
